Hülben Airfield

DE-0309 · 巴登-符腾堡, 德国

罗盘
风向 的 风向 290°
风: 5 kt, 2 beaufort

添加一条跑道以查看侧风和逆风信息。

添置 跑道
0 1.000 2.000 3.000 4.000 5.000
SCT 600 ft
BKN 800 ft
OVC 2.100 ft
METAR EDJA 291050Z 29005KT 9999 SCT006 BKN008 OVC021 06/05 Q1015

METAR Hülben Airfield - DE-0309

Hülben Airfield是,德国中的小机场。 视场标高为2.385 ft。 该领域的国际民航组织标志是DE-0309.

这份报告是针对2022年11月29日 11:50, 当地时间在Memmingen Allgau Airport进行的。

机场观察

风向为290°,速度为5 kt。

可见度为10 km 或者更多。

有疏云,零星散落的云朵在600 ft的高度, 碎云在800 ft的高度 和 乌云密布在2.100 ft的高度。 破损或更高的上限为800 ft。

温度为6 °C,阵风为3 °C。 露点为5 °C,相对湿度为93%。 海平面上的气压为1015 hPa (QNH)。

白天

今天,太阳从07:50升起,在16:30降落。 这适用于Hülben Airfield,世界夏令时可能有所不同。 当地时间与世界标准时间之间的时差为+1 小时。 当前,没有夏令时有效。

公司介绍

我们没有关于这个机场的公司信息。

体会

到Vliegles.nl去找飞行课程,跳伞和其他飞行体验。 浏览页面,了解Hülben Airfield附近所有可用的活动。 你也可以使用搜索功能来寻找你所在地附近的特定飞行课程、跳伞或其他飞行体验。

乌云

600 ft SCT 疏云,零星散落的云朵
800 ft BKN 碎云
2.100 ft OVC 乌云密布

温度 & 天气

温度 6 °C
露点 5 °C
相对湿度 93%
风寒 3 °C
Kp-index 3 (0-9)

白天

日出
07:45
中午
12:07
日落
16:29 (4:11)

小工具

你想在你的网站上有一个关于Hülben Airfield的当前航空天气(METAR)的小部件吗?

显示HTML代码

我们和第三方通过cookies跟踪您在我们网站上的互联网行为。如果你继续,我们认为你同意我们的饼干政策